sensor_id;sensor_type;location;lat;lon;timestamp;temperature;humidity
78733;DHT22;68056;52.530;5.454;2024-01-25T00:01:42;6.70;72.80
78733;DHT22;68056;52.530;5.454;2024-01-25T00:04:07;6.70;72.80
78733;DHT22;68056;52.530;5.454;2024-01-25T00:06:33;6.60;72.90
78733;DHT22;68056;52.530;5.454;2024-01-25T00:08:59;6.60;72.90
78733;DHT22;68056;52.530;5.454;2024-01-25T00:11:26;6.60;72.90
78733;DHT22;68056;52.530;5.454;2024-01-25T00:13:51;6.60;72.90
78733;DHT22;68056;52.530;5.454;2024-01-25T00:16:17;6.60;72.90
78733;DHT22;68056;52.530;5.454;2024-01-25T00:18:43;6.50;72.90
78733;DHT22;68056;52.530;5.454;2024-01-25T00:21:08;6.50;72.90
78733;DHT22;68056;52.530;5.454;2024-01-25T00:23:34;6.50;73.00
78733;DHT22;68056;52.530;5.454;2024-01-25T00:25:59;6.50;73.00
78733;DHT22;68056;52.530;5.454;2024-01-25T00:28:26;6.50;73.00
78733;DHT22;68056;52.530;5.454;2024-01-25T00:30:51;6.50;73.00
78733;DHT22;68056;52.530;5.454;2024-01-25T00:33:17;6.40;73.00
78733;DHT22;68056;52.530;5.454;2024-01-25T00:35:43;6.40;73.10
78733;DHT22;68056;52.530;5.454;2024-01-25T00:38:09;6.40;73.10
78733;DHT22;68056;52.530;5.454;2024-01-25T00:40:35;6.50;73.10
78733;DHT22;68056;52.530;5.454;2024-01-25T00:43:02;6.50;73.00
78733;DHT22;68056;52.530;5.454;2024-01-25T00:45:28;6.50;73.00
78733;DHT22;68056;52.530;5.454;2024-01-25T00:47:54;6.50;73.00
78733;DHT22;68056;52.530;5.454;2024-01-25T00:50:20;6.50;73.00
78733;DHT22;68056;52.530;5.454;2024-01-25T00:52:50;6.50;73.00
78733;DHT22;68056;52.530;5.454;2024-01-25T00:55:16;6.40;73.00
78733;DHT22;68056;52.530;5.454;2024-01-25T00:57:41;6.40;73.10
78733;DHT22;68056;52.530;5.454;2024-01-25T01:00:07;6.40;73.10
78733;DHT22;68056;52.530;5.454;2024-01-25T01:02:36;6.40;73.10
78733;DHT22;68056;52.530;5.454;2024-01-25T01:05:04;6.30;73.10
78733;DHT22;68056;52.530;5.454;2024-01-25T01:07:30;6.40;73.20
78733;DHT22;68056;52.530;5.454;2024-01-25T01:09:56;6.30;73.20
78733;DHT22;68056;52.530;5.454;2024-01-25T01:12:21;6.30;73.20
78733;DHT22;68056;52.530;5.454;2024-01-25T01:14:47;6.30;73.20
78733;DHT22;68056;52.530;5.454;2024-01-25T01:17:14;6.30;73.20
78733;DHT22;68056;52.530;5.454;2024-01-25T01:19:40;6.30;73.20
78733;DHT22;68056;52.530;5.454;2024-01-25T01:22:06;6.20;73.30
78733;DHT22;68056;52.530;5.454;2024-01-25T01:24:31;6.20;73.30
78733;DHT22;68056;52.530;5.454;2024-01-25T01:26:57;6.20;73.40
78733;DHT22;68056;52.530;5.454;2024-01-25T01:29:23;6.20;73.30
78733;DHT22;68056;52.530;5.454;2024-01-25T01:31:49;6.20;73.40
78733;DHT22;68056;52.530;5.454;2024-01-25T01:34:14;6.20;73.50
78733;DHT22;68056;52.530;5.454;2024-01-25T01:36:43;6.20;73.40
78733;DHT22;68056;52.530;5.454;2024-01-25T01:39:08;6.20;73.40
78733;DHT22;68056;52.530;5.454;2024-01-25T01:41:34;6.20;73.40
78733;DHT22;68056;52.530;5.454;2024-01-25T01:44:00;6.20;73.40
78733;DHT22;68056;52.530;5.454;2024-01-25T01:46:35;6.20;73.30
78733;DHT22;68056;52.530;5.454;2024-01-25T01:49:06;6.20;73.30
78733;DHT22;68056;52.530;5.454;2024-01-25T01:51:32;6.10;73.30
78733;DHT22;68056;52.530;5.454;2024-01-25T01:54:01;6.10;73.30
78733;DHT22;68056;52.530;5.454;2024-01-25T01:56:28;6.10;73.30
78733;DHT22;68056;52.530;5.454;2024-01-25T01:59:05;6.00;73.40
78733;DHT22;68056;52.530;5.454;2024-01-25T02:01:31;6.00;73.40
78733;DHT22;68056;52.530;5.454;2024-01-25T02:03:56;6.00;73.40
78733;DHT22;68056;52.530;5.454;2024-01-25T02:06:23;6.00;73.40
78733;DHT22;68056;52.530;5.454;2024-01-25T02:08:49;6.00;73.40
78733;DHT22;68056;52.530;5.454;2024-01-25T02:11:19;5.90;73.50
78733;DHT22;68056;52.530;5.454;2024-01-25T02:13:45;5.90;73.50
78733;DHT22;68056;52.530;5.454;2024-01-25T02:16:11;5.90;73.50
78733;DHT22;68056;52.530;5.454;2024-01-25T02:18:36;5.90;73.60
78733;DHT22;68056;52.530;5.454;2024-01-25T02:21:03;5.80;73.60
78733;DHT22;68056;52.530;5.454;2024-01-25T02:23:29;5.80;73.60
78733;DHT22;68056;52.530;5.454;2024-01-25T02:25:54;5.80;73.60
78733;DHT22;68056;52.530;5.454;2024-01-25T02:28:20;5.80;73.60
78733;DHT22;68056;52.530;5.454;2024-01-25T02:30:45;5.80;73.70
78733;DHT22;68056;52.530;5.454;2024-01-25T02:33:11;5.70;73.70
78733;DHT22;68056;52.530;5.454;2024-01-25T02:35:37;5.70;73.70
78733;DHT22;68056;52.530;5.454;2024-01-25T02:38:03;5.60;73.70
78733;DHT22;68056;52.530;5.454;2024-01-25T02:40:29;5.60;73.70
78733;DHT22;68056;52.530;5.454;2024-01-25T02:42:55;5.60;73.80
78733;DHT22;68056;52.530;5.454;2024-01-25T02:45:23;5.60;73.90
78733;DHT22;68056;52.530;5.454;2024-01-25T02:47:49;5.50;73.90
78733;DHT22;68056;52.530;5.454;2024-01-25T02:50:15;5.50;73.90
78733;DHT22;68056;52.530;5.454;2024-01-25T02:52:41;5.50;73.90
78733;DHT22;68056;52.530;5.454;2024-01-25T02:55:06;5.50;73.90
78733;DHT22;68056;52.530;5.454;2024-01-25T02:57:32;5.50;73.90
78733;DHT22;68056;52.530;5.454;2024-01-25T03:00:01;5.50;73.90
78733;DHT22;68056;52.530;5.454;2024-01-25T03:02:26;5.50;74.00
78733;DHT22;68056;52.530;5.454;2024-01-25T03:04:52;5.50;73.90
78733;DHT22;68056;52.530;5.454;2024-01-25T03:07:17;5.50;73.90
78733;DHT22;68056;52.530;5.454;2024-01-25T03:09:43;5.50;73.90
78733;DHT22;68056;52.530;5.454;2024-01-25T03:12:08;5.50;73.90
78733;DHT22;68056;52.530;5.454;2024-01-25T03:14:35;5.50;73.90
78733;DHT22;68056;52.530;5.454;2024-01-25T03:17:00;5.40;73.90
78733;DHT22;68056;52.530;5.454;2024-01-25T03:19:27;5.40;74.00
78733;DHT22;68056;52.530;5.454;2024-01-25T03:21:52;5.40;73.90
78733;DHT22;68056;52.530;5.454;2024-01-25T03:24:19;5.40;73.90
78733;DHT22;68056;52.530;5.454;2024-01-25T03:26:45;5.40;73.90
78733;DHT22;68056;52.530;5.454;2024-01-25T03:29:11;5.40;73.90
78733;DHT22;68056;52.530;5.454;2024-01-25T03:31:36;5.40;73.90
78733;DHT22;68056;52.530;5.454;2024-01-25T03:34:03;5.30;74.00
78733;DHT22;68056;52.530;5.454;2024-01-25T03:36:28;5.30;74.00
78733;DHT22;68056;52.530;5.454;2024-01-25T03:38:54;5.30;74.00
78733;DHT22;68056;52.530;5.454;2024-01-25T03:41:20;5.40;73.90
78733;DHT22;68056;52.530;5.454;2024-01-25T03:43:45;5.40;74.00
78733;DHT22;68056;52.530;5.454;2024-01-25T03:46:14;5.40;73.90
78733;DHT22;68056;52.530;5.454;2024-01-25T03:48:39;5.40;73.90
78733;DHT22;68056;52.530;5.454;2024-01-25T03:51:05;5.30;73.90
78733;DHT22;68056;52.530;5.454;2024-01-25T03:53:30;5.30;73.90
78733;DHT22;68056;52.530;5.454;2024-01-25T03:55:56;5.30;74.00
78733;DHT22;68056;52.530;5.454;2024-01-25T03:58:22;5.20;74.00
78733;DHT22;68056;52.530;5.454;2024-01-25T04:00:47;5.10;74.00
78733;DHT22;68056;52.530;5.454;2024-01-25T04:03:13;5.10;74.20
78733;DHT22;68056;52.530;5.454;2024-01-25T04:05:39;5.00;74.30
78733;DHT22;68056;52.530;5.454;2024-01-25T04:08:05;5.10;74.30
78733;DHT22;68056;52.530;5.454;2024-01-25T04:10:34;5.10;74.30
78733;DHT22;68056;52.530;5.454;2024-01-25T04:12:59;5.10;74.30
78733;DHT22;68056;52.530;5.454;2024-01-25T04:15:26;5.10;74.30
78733;DHT22;68056;52.530;5.454;2024-01-25T04:17:52;5.10;74.30
78733;DHT22;68056;52.530;5.454;2024-01-25T04:20:18;5.10;74.30
78733;DHT22;68056;52.530;5.454;2024-01-25T04:22:44;5.10;74.30
78733;DHT22;68056;52.530;5.454;2024-01-25T04:25:10;5.10;74.30
78733;DHT22;68056;52.530;5.454;2024-01-25T04:27:37;5.10;74.30
78733;DHT22;68056;52.530;5.454;2024-01-25T04:30:04;5.10;74.30
78733;DHT22;68056;52.530;5.454;2024-01-25T04:32:30;5.10;74.40
78733;DHT22;68056;52.530;5.454;2024-01-25T04:34:55;5.10;74.40
78733;DHT22;68056;52.530;5.454;2024-01-25T04:37:21;5.10;74.40
78733;DHT22;68056;52.530;5.454;2024-01-25T04:39:46;5.10;74.50
78733;DHT22;68056;52.530;5.454;2024-01-25T04:42:12;5.00;74.60
78733;DHT22;68056;52.530;5.454;2024-01-25T04:44:38;5.00;74.60
78733;DHT22;68056;52.530;5.454;2024-01-25T04:47:03;5.00;74.60
78733;DHT22;68056;52.530;5.454;2024-01-25T04:49:29;5.00;74.60
78733;DHT22;68056;52.530;5.454;2024-01-25T04:51:54;5.00;74.60
78733;DHT22;68056;52.530;5.454;2024-01-25T04:54:20;5.00;74.60
78733;DHT22;68056;52.530;5.454;2024-01-25T04:56:45;5.10;74.60
78733;DHT22;68056;52.530;5.454;2024-01-25T04:59:11;5.10;74.60
78733;DHT22;68056;52.530;5.454;2024-01-25T05:01:36;5.10;74.50
78733;DHT22;68056;52.530;5.454;2024-01-25T05:04:02;5.10;74.60
78733;DHT22;68056;52.530;5.454;2024-01-25T05:06:28;5.10;74.50
78733;DHT22;68056;52.530;5.454;2024-01-25T05:08:54;5.10;74.60
78733;DHT22;68056;52.530;5.454;2024-01-25T05:11:20;5.20;74.70
78733;DHT22;68056;52.530;5.454;2024-01-25T05:13:45;5.20;74.60
78733;DHT22;68056;52.530;5.454;2024-01-25T05:16:11;5.10;74.50
78733;DHT22;68056;52.530;5.454;2024-01-25T05:18:37;5.10;74.70
78733;DHT22;68056;52.530;5.454;2024-01-25T05:21:02;5.10;74.60
78733;DHT22;68056;52.530;5.454;2024-01-25T05:23:28;5.00;74.80
78733;DHT22;68056;52.530;5.454;2024-01-25T05:25:54;5.00;74.80
78733;DHT22;68056;52.530;5.454;2024-01-25T05:28:19;5.00;74.80
78733;DHT22;68056;52.530;5.454;2024-01-25T05:30:45;5.00;74.90
78733;DHT22;68056;52.530;5.454;2024-01-25T05:33:10;5.00;75.00
78733;DHT22;68056;52.530;5.454;2024-01-25T05:35:36;5.00;74.90
78733;DHT22;68056;52.530;5.454;2024-01-25T05:38:01;5.00;75.00
78733;DHT22;68056;52.530;5.454;2024-01-25T05:40:27;5.00;75.00
78733;DHT22;68056;52.530;5.454;2024-01-25T05:42:53;5.00;75.00
78733;DHT22;68056;52.530;5.454;2024-01-25T05:45:18;5.00;75.00
78733;DHT22;68056;52.530;5.454;2024-01-25T05:47:46;5.00;75.00
78733;DHT22;68056;52.530;5.454;2024-01-25T05:50:12;5.00;75.00
78733;DHT22;68056;52.530;5.454;2024-01-25T05:52:37;5.00;75.00
78733;DHT22;68056;52.530;5.454;2024-01-25T05:55:04;5.00;75.00
78733;DHT22;68056;52.530;5.454;2024-01-25T05:57:30;4.90;75.00
78733;DHT22;68056;52.530;5.454;2024-01-25T05:59:56;4.90;75.00
78733;DHT22;68056;52.530;5.454;2024-01-25T06:02:21;4.80;75.10
78733;DHT22;68056;52.530;5.454;2024-01-25T06:04:49;4.70;75.10
78733;DHT22;68056;52.530;5.454;2024-01-25T06:07:15;4.70;75.30
78733;DHT22;68056;52.530;5.454;2024-01-25T06:09:40;4.70;75.30
78733;DHT22;68056;52.530;5.454;2024-01-25T06:12:06;4.70;75.30
78733;DHT22;68056;52.530;5.454;2024-01-25T06:14:32;4.60;75.30
78733;DHT22;68056;52.530;5.454;2024-01-25T06:16:58;4.60;75.40
78733;DHT22;68056;52.530;5.454;2024-01-25T06:19:23;4.60;75.40
78733;DHT22;68056;52.530;5.454;2024-01-25T06:21:50;4.50;75.40
78733;DHT22;68056;52.530;5.454;2024-01-25T06:24:15;4.50;75.40
78733;DHT22;68056;52.530;5.454;2024-01-25T06:26:41;4.50;75.40
78733;DHT22;68056;52.530;5.454;2024-01-25T06:29:06;4.50;75.40
78733;DHT22;68056;52.530;5.454;2024-01-25T06:31:32;4.50;75.40
78733;DHT22;68056;52.530;5.454;2024-01-25T06:33:57;4.50;75.40
78733;DHT22;68056;52.530;5.454;2024-01-25T06:36:23;4.50;75.40
78733;DHT22;68056;52.530;5.454;2024-01-25T06:38:48;4.50;75.40
78733;DHT22;68056;52.530;5.454;2024-01-25T06:41:14;4.50;75.40
78733;DHT22;68056;52.530;5.454;2024-01-25T06:43:43;4.50;75.40
78733;DHT22;68056;52.530;5.454;2024-01-25T06:46:08;4.50;75.40
78733;DHT22;68056;52.530;5.454;2024-01-25T06:48:34;4.50;75.30
78733;DHT22;68056;52.530;5.454;2024-01-25T06:51:00;4.50;75.40
78733;DHT22;68056;52.530;5.454;2024-01-25T06:53:28;4.50;75.40
78733;DHT22;68056;52.530;5.454;2024-01-25T06:55:54;4.50;75.40
78733;DHT22;68056;52.530;5.454;2024-01-25T06:58:19;4.60;75.40
78733;DHT22;68056;52.530;5.454;2024-01-25T07:00:48;4.60;75.40
78733;DHT22;68056;52.530;5.454;2024-01-25T07:03:13;4.60;75.40
78733;DHT22;68056;52.530;5.454;2024-01-25T07:05:40;4.60;75.50
78733;DHT22;68056;52.530;5.454;2024-01-25T07:08:06;4.70;75.50
78733;DHT22;68056;52.530;5.454;2024-01-25T07:10:34;4.70;75.40
78733;DHT22;68056;52.530;5.454;2024-01-25T07:13:00;4.70;75.50
78733;DHT22;68056;52.530;5.454;2024-01-25T07:15:25;4.70;75.40
78733;DHT22;68056;52.530;5.454;2024-01-25T07:17:51;4.70;75.40
78733;DHT22;68056;52.530;5.454;2024-01-25T07:20:17;4.70;75.40
78733;DHT22;68056;52.530;5.454;2024-01-25T07:22:42;4.80;75.40
78733;DHT22;68056;52.530;5.454;2024-01-25T07:25:08;4.80;75.40
78733;DHT22;68056;52.530;5.454;2024-01-25T07:27:34;4.80;75.40
78733;DHT22;68056;52.530;5.454;2024-01-25T07:30:00;4.80;75.40
78733;DHT22;68056;52.530;5.454;2024-01-25T07:32:25;4.90;75.40
78733;DHT22;68056;52.530;5.454;2024-01-25T07:34:52;4.90;75.40
78733;DHT22;68056;52.530;5.454;2024-01-25T07:37:18;4.90;75.40
78733;DHT22;68056;52.530;5.454;2024-01-25T07:39:44;4.90;75.40
78733;DHT22;68056;52.530;5.454;2024-01-25T07:42:10;5.00;75.40
78733;DHT22;68056;52.530;5.454;2024-01-25T07:44:36;5.00;75.40
78733;DHT22;68056;52.530;5.454;2024-01-25T07:47:02;5.00;75.40
78733;DHT22;68056;52.530;5.454;2024-01-25T07:49:28;5.00;75.40
78733;DHT22;68056;52.530;5.454;2024-01-25T07:51:54;5.00;75.40
78733;DHT22;68056;52.530;5.454;2024-01-25T07:54:22;5.00;75.50
78733;DHT22;68056;52.530;5.454;2024-01-25T07:56:47;5.00;75.40
78733;DHT22;68056;52.530;5.454;2024-01-25T07:59:13;5.00;75.40
78733;DHT22;68056;52.530;5.454;2024-01-25T08:01:38;5.00;75.50
78733;DHT22;68056;52.530;5.454;2024-01-25T08:04:07;5.00;75.50
78733;DHT22;68056;52.530;5.454;2024-01-25T08:06:32;5.00;75.50
78733;DHT22;68056;52.530;5.454;2024-01-25T08:08:58;5.10;75.40
78733;DHT22;68056;52.530;5.454;2024-01-25T08:11:25;5.10;75.40
78733;DHT22;68056;52.530;5.454;2024-01-25T08:13:51;5.10;75.40
78733;DHT22;68056;52.530;5.454;2024-01-25T08:16:17;5.10;75.50
78733;DHT22;68056;52.530;5.454;2024-01-25T08:18:46;5.10;75.40
78733;DHT22;68056;52.530;5.454;2024-01-25T08:21:12;5.20;75.40
78733;DHT22;68056;52.530;5.454;2024-01-25T08:23:38;5.20;75.30
78733;DHT22;68056;52.530;5.454;2024-01-25T08:26:05;5.20;75.40
78733;DHT22;68056;52.530;5.454;2024-01-25T08:28:30;5.30;75.30
78733;DHT22;68056;52.530;5.454;2024-01-25T08:30:56;5.30;75.30
78733;DHT22;68056;52.530;5.454;2024-01-25T08:33:22;5.30;75.30
78733;DHT22;68056;52.530;5.454;2024-01-25T08:35:52;5.30;75.30
78733;DHT22;68056;52.530;5.454;2024-01-25T08:38:18;5.30;75.30
78733;DHT22;68056;52.530;5.454;2024-01-25T08:40:46;5.40;75.20
78733;DHT22;68056;52.530;5.454;2024-01-25T08:43:12;5.40;75.20
78733;DHT22;68056;52.530;5.454;2024-01-25T08:45:38;5.40;75.20
78733;DHT22;68056;52.530;5.454;2024-01-25T08:48:04;5.50;75.20
78733;DHT22;68056;52.530;5.454;2024-01-25T08:50:30;5.50;75.20
78733;DHT22;68056;52.530;5.454;2024-01-25T08:52:55;5.50;75.10
78733;DHT22;68056;52.530;5.454;2024-01-25T08:55:21;5.60;75.10
78733;DHT22;68056;52.530;5.454;2024-01-25T08:57:49;5.60;75.10
78733;DHT22;68056;52.530;5.454;2024-01-25T09:00:15;5.60;75.10
78733;DHT22;68056;52.530;5.454;2024-01-25T09:02:41;5.60;75.10
78733;DHT22;68056;52.530;5.454;2024-01-25T09:05:08;5.70;75.10
78733;DHT22;68056;52.530;5.454;2024-01-25T09:07:34;5.70;75.00
78733;DHT22;68056;52.530;5.454;2024-01-25T09:10:00;5.70;75.10
78733;DHT22;68056;52.530;5.454;2024-01-25T09:12:26;5.70;75.00
78733;DHT22;68056;52.530;5.454;2024-01-25T09:14:51;5.80;75.00
78733;DHT22;68056;52.530;5.454;2024-01-25T09:17:17;5.80;75.00
78733;DHT22;68056;52.530;5.454;2024-01-25T09:19:50;5.80;75.00
78733;DHT22;68056;52.530;5.454;2024-01-25T09:22:17;5.90;75.00
78733;DHT22;68056;52.530;5.454;2024-01-25T09:24:44;5.90;75.00
78733;DHT22;68056;52.530;5.454;2024-01-25T09:27:10;6.00;74.90
78733;DHT22;68056;52.530;5.454;2024-01-25T09:29:38;6.10;74.90
78733;DHT22;68056;52.530;5.454;2024-01-25T09:32:08;6.20;74.70
78733;DHT22;68056;52.530;5.454;2024-01-25T09:34:37;6.20;74.60
78733;DHT22;68056;52.530;5.454;2024-01-25T09:37:03;6.20;74.50
78733;DHT22;68056;52.530;5.454;2024-01-25T09:39:29;6.20;74.60
78733;DHT22;68056;52.530;5.454;2024-01-25T09:41:54;6.10;74.70
78733;DHT22;68056;52.530;5.454;2024-01-25T09:44:20;6.10;74.80
78733;DHT22;68056;52.530;5.454;2024-01-25T09:46:46;6.10;74.90
78733;DHT22;68056;52.530;5.454;2024-01-25T09:49:12;6.10;74.90
78733;DHT22;68056;52.530;5.454;2024-01-25T09:51:40;6.10;74.90
78733;DHT22;68056;52.530;5.454;2024-01-25T09:54:06;6.10;75.00
78733;DHT22;68056;52.530;5.454;2024-01-25T09:56:33;6.10;75.00
78733;DHT22;68056;52.530;5.454;2024-01-25T09:58:58;6.10;75.00
78733;DHT22;68056;52.530;5.454;2024-01-25T10:01:24;6.20;75.00
78733;DHT22;68056;52.530;5.454;2024-01-25T10:03:50;6.20;75.00
78733;DHT22;68056;52.530;5.454;2024-01-25T10:06:16;6.20;74.90
78733;DHT22;68056;52.530;5.454;2024-01-25T10:08:42;6.20;75.00
78733;DHT22;68056;52.530;5.454;2024-01-25T10:11:08;6.20;75.00
78733;DHT22;68056;52.530;5.454;2024-01-25T10:13:44;6.30;75.00
78733;DHT22;68056;52.530;5.454;2024-01-25T10:16:19;6.30;74.90
78733;DHT22;68056;52.530;5.454;2024-01-25T10:18:48;6.40;74.90
78733;DHT22;68056;52.530;5.454;2024-01-25T10:21:14;6.40;74.90
78733;DHT22;68056;52.530;5.454;2024-01-25T10:23:41;6.50;74.80
78733;DHT22;68056;52.530;5.454;2024-01-25T10:26:09;6.60;74.70
78733;DHT22;68056;52.530;5.454;2024-01-25T10:28:34;6.70;74.70
78733;DHT22;68056;52.530;5.454;2024-01-25T10:31:02;6.80;74.60
78733;DHT22;68056;52.530;5.454;2024-01-25T10:33:30;6.80;74.50
78733;DHT22;68056;52.530;5.454;2024-01-25T10:35:57;6.90;74.40
78733;DHT22;68056;52.530;5.454;2024-01-25T10:38:30;6.90;74.40
78733;DHT22;68056;52.530;5.454;2024-01-25T10:41:00;7.00;74.40
78733;DHT22;68056;52.530;5.454;2024-01-25T10:43:27;7.00;74.30
78733;DHT22;68056;52.530;5.454;2024-01-25T10:45:53;7.10;74.40
78733;DHT22;68056;52.530;5.454;2024-01-25T10:48:21;7.20;74.30
78733;DHT22;68056;52.530;5.454;2024-01-25T10:50:48;7.30;74.20
78733;DHT22;68056;52.530;5.454;2024-01-25T10:53:15;7.50;74.10
78733;DHT22;68056;52.530;5.454;2024-01-25T10:55:41;7.50;74.00
78733;DHT22;68056;52.530;5.454;2024-01-25T10:58:07;7.50;74.00
78733;DHT22;68056;52.530;5.454;2024-01-25T11:00:35;7.60;73.90
78733;DHT22;68056;52.530;5.454;2024-01-25T11:03:01;7.70;73.90
78733;DHT22;68056;52.530;5.454;2024-01-25T11:05:27;7.80;73.80
78733;DHT22;68056;52.530;5.454;2024-01-25T11:07:52;7.80;73.70
78733;DHT22;68056;52.530;5.454;2024-01-25T11:10:24;7.90;73.90
78733;DHT22;68056;52.530;5.454;2024-01-25T11:15:23;8.20;73.50
78733;DHT22;68056;52.530;5.454;2024-01-25T11:17:56;8.20;73.40
78733;DHT22;68056;52.530;5.454;2024-01-25T11:20:27;8.20;73.40
78733;DHT22;68056;52.530;5.454;2024-01-25T11:22:57;8.20;73.40
78733;DHT22;68056;52.530;5.454;2024-01-25T11:25:32;8.10;73.50
78733;DHT22;68056;52.530;5.454;2024-01-25T11:28:03;8.00;73.70
78733;DHT22;68056;52.530;5.454;2024-01-25T11:30:32;8.00;73.80
78733;DHT22;68056;52.530;5.454;2024-01-25T11:32:59;8.00;74.00
78733;DHT22;68056;52.530;5.454;2024-01-25T11:35:25;8.00;74.00
78733;DHT22;68056;52.530;5.454;2024-01-25T11:37:51;8.00;74.00
78733;DHT22;68056;52.530;5.454;2024-01-25T11:40:18;7.90;73.90
78733;DHT22;68056;52.530;5.454;2024-01-25T11:42:46;7.90;74.10
78733;DHT22;68056;52.530;5.454;2024-01-25T11:45:13;7.90;74.20
78733;DHT22;68056;52.530;5.454;2024-01-25T11:47:40;8.00;74.10
78733;DHT22;68056;52.530;5.454;2024-01-25T11:50:07;8.10;73.90
78733;DHT22;68056;52.530;5.454;2024-01-25T11:52:33;8.20;73.70
78733;DHT22;68056;52.530;5.454;2024-01-25T11:55:03;8.20;73.60
78733;DHT22;68056;52.530;5.454;2024-01-25T11:57:30;8.20;73.60
78733;DHT22;68056;52.530;5.454;2024-01-25T11:59:57;8.20;73.60
78733;DHT22;68056;52.530;5.454;2024-01-25T12:02:23;8.20;73.50
78733;DHT22;68056;52.530;5.454;2024-01-25T12:04:50;8.30;73.60
78733;DHT22;68056;52.530;5.454;2024-01-25T12:07:23;8.40;73.50
78733;DHT22;68056;52.530;5.454;2024-01-25T12:10:06;8.60;73.30
78733;DHT22;68056;52.530;5.454;2024-01-25T12:12:32;8.60;73.00
78733;DHT22;68056;52.530;5.454;2024-01-25T12:15:05;8.80;72.90
78733;DHT22;68056;52.530;5.454;2024-01-25T12:17:31;8.90;72.60
78733;DHT22;68056;52.530;5.454;2024-01-25T12:19:58;9.00;72.70
78733;DHT22;68056;52.530;5.454;2024-01-25T12:22:27;9.20;72.30
78733;DHT22;68056;52.530;5.454;2024-01-25T12:24:59;9.20;72.00
78733;DHT22;68056;52.530;5.454;2024-01-25T12:27:26;9.20;72.10
78733;DHT22;68056;52.530;5.454;2024-01-25T12:29:53;9.20;72.30
78733;DHT22;68056;52.530;5.454;2024-01-25T12:32:22;9.20;72.30
78733;DHT22;68056;52.530;5.454;2024-01-25T12:34:59;9.20;72.30
78733;DHT22;68056;52.530;5.454;2024-01-25T12:37:29;9.30;72.20
78733;DHT22;68056;52.530;5.454;2024-01-25T12:39:54;9.40;72.00
78733;DHT22;68056;52.530;5.454;2024-01-25T12:42:21;9.40;71.90
78733;DHT22;68056;52.530;5.454;2024-01-25T12:44:47;9.40;71.90
78733;DHT22;68056;52.530;5.454;2024-01-25T12:47:13;9.30;72.00
78733;DHT22;68056;52.530;5.454;2024-01-25T12:49:42;9.30;72.10
78733;DHT22;68056;52.530;5.454;2024-01-25T12:52:09;9.20;72.10
78733;DHT22;68056;52.530;5.454;2024-01-25T12:54:36;9.20;72.20
78733;DHT22;68056;52.530;5.454;2024-01-25T12:57:02;9.20;72.20
78733;DHT22;68056;52.530;5.454;2024-01-25T12:59:27;9.20;72.40
78733;DHT22;68056;52.530;5.454;2024-01-25T13:01:53;9.20;72.30
78733;DHT22;68056;52.530;5.454;2024-01-25T13:04:18;9.40;72.30
78733;DHT22;68056;52.530;5.454;2024-01-25T13:06:46;9.40;72.20
78733;DHT22;68056;52.530;5.454;2024-01-25T13:09:12;9.40;72.10
78733;DHT22;68056;52.530;5.454;2024-01-25T13:11:38;9.40;72.00
78733;DHT22;68056;52.530;5.454;2024-01-25T13:14:03;9.50;71.90
78733;DHT22;68056;52.530;5.454;2024-01-25T13:16:29;9.50;71.90
78733;DHT22;68056;52.530;5.454;2024-01-25T13:18:55;9.50;71.80
78733;DHT22;68056;52.530;5.454;2024-01-25T13:21:21;9.60;71.60
78733;DHT22;68056;52.530;5.454;2024-01-25T13:23:47;9.50;71.60
78733;DHT22;68056;52.530;5.454;2024-01-25T13:26:19;9.50;71.50
78733;DHT22;68056;52.530;5.454;2024-01-25T13:28:50;9.50;71.50
78733;DHT22;68056;52.530;5.454;2024-01-25T13:31:19;9.50;71.20
78733;DHT22;68056;52.530;5.454;2024-01-25T13:33:44;9.40;71.20
78733;DHT22;68056;52.530;5.454;2024-01-25T13:36:11;9.40;71.20
78733;DHT22;68056;52.530;5.454;2024-01-25T13:38:42;9.40;71.20
78733;DHT22;68056;52.530;5.454;2024-01-25T13:41:08;9.40;71.40
78733;DHT22;68056;52.530;5.454;2024-01-25T13:43:34;9.40;71.30
78733;DHT22;68056;52.530;5.454;2024-01-25T13:46:00;9.30;71.30
78733;DHT22;68056;52.530;5.454;2024-01-25T13:48:26;9.20;71.40
78733;DHT22;68056;52.530;5.454;2024-01-25T13:50:51;9.20;71.40
78733;DHT22;68056;52.530;5.454;2024-01-25T13:53:17;9.20;71.40
78733;DHT22;68056;52.530;5.454;2024-01-25T13:55:43;9.20;71.20
78733;DHT22;68056;52.530;5.454;2024-01-25T13:58:09;9.10;71.40
78733;DHT22;68056;52.530;5.454;2024-01-25T14:00:35;9.10;71.50
78733;DHT22;68056;52.530;5.454;2024-01-25T14:03:00;9.00;71.40
78733;DHT22;68056;52.530;5.454;2024-01-25T14:05:26;9.00;71.50
78733;DHT22;68056;52.530;5.454;2024-01-25T14:07:51;9.00;71.50
78733;DHT22;68056;52.530;5.454;2024-01-25T14:10:17;9.00;71.50
78733;DHT22;68056;52.530;5.454;2024-01-25T14:12:44;9.00;71.60
78733;DHT22;68056;52.530;5.454;2024-01-25T14:15:10;9.00;71.60
78733;DHT22;68056;52.530;5.454;2024-01-25T14:17:35;8.90;71.50
78733;DHT22;68056;52.530;5.454;2024-01-25T14:20:02;8.90;71.50
78733;DHT22;68056;52.530;5.454;2024-01-25T14:22:29;8.90;71.60
78733;DHT22;68056;52.530;5.454;2024-01-25T14:24:55;8.90;71.60
78733;DHT22;68056;52.530;5.454;2024-01-25T14:27:21;8.80;71.50
78733;DHT22;68056;52.530;5.454;2024-01-25T14:29:46;8.80;71.50
78733;DHT22;68056;52.530;5.454;2024-01-25T14:32:12;8.70;71.50
78733;DHT22;68056;52.530;5.454;2024-01-25T14:34:38;8.70;71.50
78733;DHT22;68056;52.530;5.454;2024-01-25T14:37:03;8.60;71.50
78733;DHT22;68056;52.530;5.454;2024-01-25T14:39:29;8.70;71.60
78733;DHT22;68056;52.530;5.454;2024-01-25T14:41:54;8.70;71.60
78733;DHT22;68056;52.530;5.454;2024-01-25T14:44:20;8.70;71.60
78733;DHT22;68056;52.530;5.454;2024-01-25T14:46:46;8.70;71.60
78733;DHT22;68056;52.530;5.454;2024-01-25T14:49:12;8.60;71.60
78733;DHT22;68056;52.530;5.454;2024-01-25T14:51:38;8.60;71.60
78733;DHT22;68056;52.530;5.454;2024-01-25T14:54:03;8.70;71.60
78733;DHT22;68056;52.530;5.454;2024-01-25T14:56:29;8.70;71.50
78733;DHT22;68056;52.530;5.454;2024-01-25T14:58:55;8.70;71.50
78733;DHT22;68056;52.530;5.454;2024-01-25T15:01:21;8.60;71.60
78733;DHT22;68056;52.530;5.454;2024-01-25T15:03:53;8.60;71.60
78733;DHT22;68056;52.530;5.454;2024-01-25T15:06:18;8.60;71.50
78733;DHT22;68056;52.530;5.454;2024-01-25T15:08:44;8.60;71.60
78733;DHT22;68056;52.530;5.454;2024-01-25T15:11:09;8.60;71.50
78733;DHT22;68056;52.530;5.454;2024-01-25T15:13:35;8.60;71.60
78733;DHT22;68056;52.530;5.454;2024-01-25T15:16:01;8.60;71.60
78733;DHT22;68056;52.530;5.454;2024-01-25T15:18:27;8.60;71.70
78733;DHT22;68056;52.530;5.454;2024-01-25T15:20:52;8.60;71.70
78733;DHT22;68056;52.530;5.454;2024-01-25T15:23:18;8.50;71.90
78733;DHT22;68056;52.530;5.454;2024-01-25T15:25:44;8.50;72.00
78733;DHT22;68056;52.530;5.454;2024-01-25T15:28:09;8.40;72.10
78733;DHT22;68056;52.530;5.454;2024-01-25T15:30:35;8.30;72.30
78733;DHT22;68056;52.530;5.454;2024-01-25T15:33:01;8.30;72.50
78733;DHT22;68056;52.530;5.454;2024-01-25T15:35:28;8.20;72.60
78733;DHT22;68056;52.530;5.454;2024-01-25T15:37:53;8.20;72.80
78733;DHT22;68056;52.530;5.454;2024-01-25T15:40:19;8.10;73.00
78733;DHT22;68056;52.530;5.454;2024-01-25T15:42:45;8.10;73.10